Time;durP1;ratioP1;P1;durP2;ratioP2;P2;SDS_P1;SDS_P2;PMS_P1;PMS_P2;Temp;Humidity;BMP_temperature;BMP_pressure;BME280_temperature;BME280_humidity;BME280_pressure;Samples;Min_cycle;Max_cycle;Signal;HPM_P1;HPM_P2
2021/09/21 00:02:09;;;;;;;;;;;11.40;99.90;;;;;;1849867;76;20193;-70
2021/09/21 00:04:36;;;;;;;;;;;11.40;99.90;;;;;;1850961;76;20169;-69
2021/09/21 00:07:03;;;;;;;;;;;11.50;99.90;;;;;;1853666;76;20204;-70
2021/09/21 00:09:30;;;;;;;;;;;11.40;99.90;;;;;;1852723;76;20613;-69
2021/09/21 00:11:57;;;;;;;;;;;11.40;99.90;;;;;;1847135;76;20189;-69
2021/09/21 00:14:23;;;;;;;;;;;11.30;99.90;;;;;;1853590;76;20202;-69
2021/09/21 00:16:50;;;;;;;;;;;11.40;99.90;;;;;;1854121;76;20169;-69
2021/09/21 00:19:17;;;;;;;;;;;11.40;99.90;;;;;;1854172;76;20257;-70
2021/09/21 00:21:44;;;;;;;;;;;11.50;99.90;;;;;;1853380;76;20122;-70
2021/09/21 00:24:11;;;;;;;;;;;11.50;99.90;;;;;;1848663;76;20171;-69
2021/09/21 00:26:37;;;;;;;;;;;11.60;99.90;;;;;;1844949;76;20174;-69
2021/09/21 00:29:05;;;;;;;;;;;11.50;99.90;;;;;;1849673;76;20253;-69
2021/09/21 00:31:42;;;;;;;;;;;11.50;99.90;;;;;;1847359;77;20272;-69
2021/09/21 00:34:13;;;;;;;;;;;11.60;99.90;;;;;;1847431;76;20517;-69
2021/09/21 00:36:36;;;;;;;;;;;11.60;99.90;;;;;;1843243;76;20181;-69
2021/09/21 00:39:04;;;;;;;;;;;11.60;99.90;;;;;;1853724;76;20294;-69
2021/09/21 00:41:31;;;;;;;;;;;11.60;99.90;;;;;;1854202;76;20167;-69
2021/09/21 00:43:58;;;;;;;;;;;11.70;99.90;;;;;;1854632;76;20119;-70
2021/09/21 00:46:25;;;;;;;;;;;11.70;99.90;;;;;;1853677;76;20440;-70
2021/09/21 00:48:52;;;;;;;;;;;11.70;99.90;;;;;;1844491;76;20161;-70
2021/09/21 00:51:20;;;;;;;;;;;11.70;99.90;;;;;;1852073;76;20125;-69
2021/09/21 00:53:48;;;;;;;;;;;11.70;99.90;;;;;;1844655;76;20184;-69
2021/09/21 00:56:15;;;;;;;;;;;11.80;99.90;;;;;;1850247;76;20161;-69
2021/09/21 00:58:41;;;;;;;;;;;11.80;99.90;;;;;;1854689;76;20212;-69
2021/09/21 01:01:08;;;;;;;;;;;11.90;99.90;;;;;;1853116;76;20168;-69
2021/09/21 01:03:35;;;;;;;;;;;11.80;99.90;;;;;;1851955;76;20173;-68
2021/09/21 01:06:02;;;;;;;;;;;11.70;99.90;;;;;;1840294;76;20193;-70
2021/09/21 01:08:29;;;;;;;;;;;11.70;99.90;;;;;;1852011;76;20152;-70
2021/09/21 01:10:56;;;;;;;;;;;11.70;99.90;;;;;;1851834;76;20236;-70
2021/09/21 01:13:23;;;;;;;;;;;11.70;99.90;;;;;;1854304;77;20177;-70
2021/09/21 01:15:51;;;;;;;;;;;11.80;99.90;;;;;;1854437;76;20174;-69
2021/09/21 01:18:18;;;;;;;;;;;11.70;99.90;;;;;;1855712;76;20219;-69
2021/09/21 01:20:45;;;;;;;;;;;11.80;99.90;;;;;;1854489;76;20124;-70
2021/09/21 01:23:11;;;;;;;;;;;11.90;99.90;;;;;;1853073;76;20128;-69
2021/09/21 01:25:38;;;;;;;;;;;11.90;99.90;;;;;;1852522;76;20224;-69
2021/09/21 01:28:05;;;;;;;;;;;11.90;99.90;;;;;;1854142;76;20207;-69
2021/09/21 01:30:32;;;;;;;;;;;11.90;99.90;;;;;;1853465;76;20645;-70
2021/09/21 01:33:01;;;;;;;;;;;11.80;99.90;;;;;;1854026;76;20189;-69
2021/09/21 01:35:27;;;;;;;;;;;11.80;99.90;;;;;;1853074;76;20447;-70
2021/09/21 01:37:54;;;;;;;;;;;11.90;99.90;;;;;;1854637;76;20134;-70
2021/09/21 01:40:21;;;;;;;;;;;11.90;99.90;;;;;;1853326;76;20185;-70
2021/09/21 01:42:49;;;;;;;;;;;11.90;99.90;;;;;;1854208;76;20113;-70
2021/09/21 01:45:16;;;;;;;;;;;11.90;99.90;;;;;;1853659;76;20139;-72
2021/09/21 01:47:49;;;;;;;;;;;11.90;99.90;;;;;;1853861;76;20206;-70
2021/09/21 01:50:28;;;;;;;;;;;11.90;99.90;;;;;;1851150;76;20120;-70
2021/09/21 01:52:50;;;;;;;;;;;12.00;99.90;;;;;;1850500;76;20189;-69
2021/09/21 01:55:13;;;;;;;;;;;12.00;99.90;;;;;;1851267;76;20505;-72
2021/09/21 02:00:22;;;;;;;;;;;11.90;99.90;;;;;;1850912;76;20188;-69
2021/09/21 02:02:49;;;;;;;;;;;12.00;99.90;;;;;;1839835;76;20181;-69
2021/09/21 02:05:16;;;;;;;;;;;11.90;99.90;;;;;;1851157;76;20272;-70
2021/09/21 02:07:43;;;;;;;;;;;12.00;99.90;;;;;;1854645;76;20551;-70
2021/09/21 02:10:10;;;;;;;;;;;12.00;99.90;;;;;;1852871;76;20248;-70
2021/09/21 02:12:37;;;;;;;;;;;12.00;99.90;;;;;;1854242;75;20215;-70
2021/09/21 02:15:04;;;;;;;;;;;11.90;99.90;;;;;;1854225;76;20183;-69
2021/09/21 02:17:31;;;;;;;;;;;12.00;99.90;;;;;;1852603;76;20212;-70
2021/09/21 02:19:58;;;;;;;;;;;12.00;99.90;;;;;;1853089;76;20183;-70
2021/09/21 02:22:25;;;;;;;;;;;12.10;99.90;;;;;;1853018;76;20132;-69
2021/09/21 02:24:51;;;;;;;;;;;12.10;99.90;;;;;;1854219;76;20228;-69
2021/09/21 02:27:18;;;;;;;;;;;12.10;99.90;;;;;;1849292;76;20202;-69
2021/09/21 02:29:45;;;;;;;;;;;12.10;99.90;;;;;;1851379;76;20113;-69
2021/09/21 02:32:12;;;;;;;;;;;12.10;99.90;;;;;;1854210;76;20158;-69
2021/09/21 02:34:44;;;;;;;;;;;12.10;99.90;;;;;;1854454;76;20161;-69
2021/09/21 02:37:07;;;;;;;;;;;12.10;99.90;;;;;;1847519;76;20376;-69
2021/09/21 02:39:34;;;;;;;;;;;12.00;99.90;;;;;;1855147;76;20267;-69
2021/09/21 02:42:01;;;;;;;;;;;12.20;99.90;;;;;;1853376;76;20118;-69
2021/09/21 02:44:27;;;;;;;;;;;12.20;99.90;;;;;;1840707;76;20159;-69
2021/09/21 02:46:54;;;;;;;;;;;12.20;99.90;;;;;;1835869;76;20189;-69
2021/09/21 02:49:21;;;;;;;;;;;12.30;99.90;;;;;;1852929;76;21110;-69
2021/09/21 02:51:48;;;;;;;;;;;12.30;99.90;;;;;;1853297;76;20217;-69
2021/09/21 02:54:15;;;;;;;;;;;12.30;99.90;;;;;;1833674;76;20442;-70
2021/09/21 02:56:41;;;;;;;;;;;12.30;99.90;;;;;;1854411;76;20112;-70
2021/09/21 02:59:08;;;;;;;;;;;12.30;99.90;;;;;;1853861;76;20447;-70
2021/09/21 03:01:35;;;;;;;;;;;12.40;99.90;;;;;;1852888;76;20165;-70
2021/09/21 03:04:06;;;;;;;;;;;12.40;99.90;;;;;;1844402;77;20120;-70
2021/09/21 03:06:39;;;;;;;;;;;12.40;99.90;;;;;;1856871;76;20192;-70
2021/09/21 03:09:13;;;;;;;;;;;12.20;99.90;;;;;;1849192;76;20210;-70
2021/09/21 03:11:40;;;;;;;;;;;12.30;99.90;;;;;;1842632;76;20236;-70
2021/09/21 03:19:27;;;;;;;;;;;12.20;99.90;;;;;;1858976;76;20184;-71
2021/09/21 03:21:54;;;;;;;;;;;12.20;99.90;;;;;;1847455;76;20150;-71
2021/09/21 03:24:21;;;;;;;;;;;12.20;99.90;;;;;;1851928;76;20232;-71
2021/09/21 03:26:48;;;;;;;;;;;12.30;99.90;;;;;;1836201;76;20196;-71
2021/09/21 03:29:15;;;;;;;;;;;12.30;99.90;;;;;;1852373;76;20449;-71
2021/09/21 03:31:42;;;;;;;;;;;12.40;99.90;;;;;;1853543;76;20200;-70
2021/09/21 03:34:08;;;;;;;;;;;12.40;99.90;;;;;;1831686;76;20434;-71
2021/09/21 03:36:35;;;;;;;;;;;12.40;99.90;;;;;;1853206;76;20170;-70
2021/09/21 03:39:02;;;;;;;;;;;12.20;99.90;;;;;;1854373;76;20370;-71
2021/09/21 03:41:29;;;;;;;;;;;12.20;99.90;;;;;;1853556;76;20463;-71
2021/09/21 03:43:56;;;;;;;;;;;12.20;99.90;;;;;;1854217;76;20209;-71
2021/09/21 03:46:23;;;;;;;;;;;12.20;99.90;;;;;;1844074;77;20475;-70
2021/09/21 03:48:49;;;;;;;;;;;12.20;99.90;;;;;;1852499;76;20185;-70
2021/09/21 03:51:16;;;;;;;;;;;12.20;99.90;;;;;;1852867;76;20460;-70
2021/09/21 03:53:45;;;;;;;;;;;12.30;99.90;;;;;;1852916;76;20127;-71
2021/09/21 03:56:11;;;;;;;;;;;12.20;99.90;;;;;;1845611;76;20266;-70
2021/09/21 03:58:38;;;;;;;;;;;12.20;99.90;;;;;;1867672;75;20198;-70
2021/09/21 04:01:05;;;;;;;;;;;12.20;99.90;;;;;;1856125;76;20131;-70
2021/09/21 04:03:32;;;;;;;;;;;12.20;99.90;;;;;;1856138;76;20165;-70
2021/09/21 04:05:59;;;;;;;;;;;12.20;99.90;;;;;;1879403;75;20379;-70
2021/09/21 04:08:25;;;;;;;;;;;12.20;99.90;;;;;;1883088;76;20148;-69
2021/09/21 04:10:52;;;;;;;;;;;12.20;99.90;;;;;;1861913;75;20450;-70
2021/09/21 04:13:19;;;;;;;;;;;12.20;99.90;;;;;;1862263;75;20222;-71
2021/09/21 04:15:46;;;;;;;;;;;12.20;99.90;;;;;;1867593;75;20492;-70
2021/09/21 04:18:13;;;;;;;;;;;12.20;99.90;;;;;;1874001;75;20175;-70
2021/09/21 04:20:39;;;;;;;;;;;12.30;99.90;;;;;;1844452;76;20393;-70
2021/09/21 04:23:08;;;;;;;;;;;12.40;99.90;;;;;;1855742;76;20479;-70
2021/09/21 04:25:34;;;;;;;;;;;12.30;99.90;;;;;;1855658;76;20461;-71
2021/09/21 04:28:01;;;;;;;;;;;12.40;99.90;;;;;;1850709;76;20183;-70
2021/09/21 04:30:28;;;;;;;;;;;12.20;99.90;;;;;;1853913;76;20617;-70
2021/09/21 04:32:55;;;;;;;;;;;12.30;99.90;;;;;;1855703;76;20215;-70
2021/09/21 04:35:22;;;;;;;;;;;12.20;99.90;;;;;;1856605;76;20132;-70
2021/09/21 04:37:49;;;;;;;;;;;12.30;99.90;;;;;;1855945;76;20462;-70
2021/09/21 04:40:16;;;;;;;;;;;12.30;99.90;;;;;;1876173;75;20168;-70
2021/09/21 04:42:43;;;;;;;;;;;12.30;99.90;;;;;;1871744;76;20184;-71
2021/09/21 04:45:10;;;;;;;;;;;12.30;99.90;;;;;;1857030;76;20482;-70
2021/09/21 04:47:37;;;;;;;;;;;12.30;99.90;;;;;;1844684;77;20486;-70
2021/09/21 04:50:05;;;;;;;;;;;12.30;99.90;;;;;;1857068;76;20162;-70
2021/09/21 04:52:32;;;;;;;;;;;12.40;99.90;;;;;;1856152;76;20276;-70
2021/09/21 04:54:58;;;;;;;;;;;12.40;99.90;;;;;;1855943;76;20116;-70
2021/09/21 04:57:25;;;;;;;;;;;12.40;99.90;;;;;;1856943;76;20474;-71
2021/09/21 04:59:52;;;;;;;;;;;12.50;99.90;;;;;;1854996;76;20299;-71
2021/09/21 05:02:19;;;;;;;;;;;12.60;99.90;;;;;;1857625;76;20189;-69
2021/09/21 05:04:46;;;;;;;;;;;12.60;99.90;;;;;;1845682;76;20169;-69
2021/09/21 05:07:12;;;;;;;;;;;12.60;99.90;;;;;;1857869;76;20114;-70
2021/09/21 05:09:39;;;;;;;;;;;12.50;99.90;;;;;;1856578;76;20177;-70
2021/09/21 05:12:06;;;;;;;;;;;12.60;99.90;;;;;;1870357;75;20160;-70
2021/09/21 05:14:33;;;;;;;;;;;12.50;99.90;;;;;;1833322;76;20113;-71
2021/09/21 05:17:00;;;;;;;;;;;12.50;99.90;;;;;;1842268;76;20198;-72
2021/09/21 05:19:27;;;;;;;;;;;12.60;99.90;;;;;;1865305;76;20207;-71
2021/09/21 05:21:54;;;;;;;;;;;12.50;99.90;;;;;;1871135;75;20202;-72
2021/09/21 05:24:21;;;;;;;;;;;12.50;99.90;;;;;;1876920;75;20447;-71
2021/09/21 05:26:47;;;;;;;;;;;12.40;99.90;;;;;;1883051;75;20220;-70
2021/09/21 05:29:14;;;;;;;;;;;12.50;99.90;;;;;;1866111;75;20167;-71
2021/09/21 05:31:41;;;;;;;;;;;12.50;99.90;;;;;;1864082;76;20196;-70
2021/09/21 05:34:08;;;;;;;;;;;12.60;99.90;;;;;;1877934;75;20217;-70
2021/09/21 05:36:35;;;;;;;;;;;12.50;99.90;;;;;;1840039;77;20173;-70
2021/09/21 05:39:02;;;;;;;;;;;12.50;99.90;;;;;;1881447;75;20185;-70
2021/09/21 05:41:28;;;;;;;;;;;12.50;99.90;;;;;;1876272;75;20173;-71
2021/09/21 05:43:55;;;;;;;;;;;12.60;99.90;;;;;;1857500;76;20122;-71
2021/09/21 05:46:22;;;;;;;;;;;12.60;99.90;;;;;;1848543;75;20162;-71
2021/09/21 05:48:50;;;;;;;;;;;12.60;99.90;;;;;;1848475;76;20205;-71
2021/09/21 05:51:17;;;;;;;;;;;12.60;99.90;;;;;;1863878;75;20236;-71
2021/09/21 05:53:43;;;;;;;;;;;12.60;99.90;;;;;;1847862;76;20133;-70
2021/09/21 05:56:10;;;;;;;;;;;12.60;99.90;;;;;;1843344;76;20276;-70
2021/09/21 05:58:37;;;;;;;;;;;12.60;99.90;;;;;;1882108;75;20483;-70
2021/09/21 06:01:04;;;;;;;;;;;12.60;99.90;;;;;;1883961;75;20460;-70
2021/09/21 06:03:31;;;;;;;;;;;12.60;99.90;;;;;;1872959;75;20255;-71
2021/09/21 06:05:58;;;;;;;;;;;12.60;99.90;;;;;;1867060;75;20202;-71
2021/09/21 06:08:25;;;;;;;;;;;12.60;99.90;;;;;;1875269;75;20183;-71
2021/09/21 06:10:52;;;;;;;;;;;12.60;99.90;;;;;;1875870;75;20152;-72
2021/09/21 06:13:19;;;;;;;;;;;12.70;99.90;;;;;;1850902;76;20537;-71
2021/09/21 06:15:47;;;;;;;;;;;12.80;99.90;;;;;;1858488;76;20264;-71
2021/09/21 06:18:14;;;;;;;;;;;12.70;99.90;;;;;;1886358;75;20483;-71
2021/09/21 06:20:41;;;;;;;;;;;12.70;99.90;;;;;;1845089;76;20254;-72
2021/09/21 06:23:09;;;;;;;;;;;12.80;99.90;;;;;;1884107;75;20195;-71
2021/09/21 06:25:36;;;;;;;;;;;12.80;99.90;;;;;;1867052;75;20569;-74
2021/09/21 06:28:02;;;;;;;;;;;12.80;99.90;;;;;;1842107;76;20392;-71
2021/09/21 06:30:29;;;;;;;;;;;12.80;99.90;;;;;;1871619;75;20182;-71
2021/09/21 06:32:56;;;;;;;;;;;12.80;99.90;;;;;;1868616;75;20130;-71
2021/09/21 06:35:23;;;;;;;;;;;12.80;99.90;;;;;;1878830;75;20121;-71
2021/09/21 06:37:50;;;;;;;;;;;12.90;99.90;;;;;;1872518;75;20171;-72
2021/09/21 06:40:17;;;;;;;;;;;12.90;99.90;;;;;;1872712;75;20159;-73
2021/09/21 06:42:44;;;;;;;;;;;12.90;99.90;;;;;;1853032;76;20178;-71
2021/09/21 06:45:12;;;;;;;;;;;13.00;99.90;;;;;;1852578;76;20311;-71
2021/09/21 06:47:39;;;;;;;;;;;13.00;99.90;;;;;;1852103;76;20134;-71
2021/09/21 06:50:06;;;;;;;;;;;13.00;99.90;;;;;;1849057;78;20170;-71
2021/09/21 06:52:33;;;;;;;;;;;13.00;99.90;;;;;;1856715;76;20184;-71
2021/09/21 06:55:00;;;;;;;;;;;13.10;99.90;;;;;;1857644;76;20183;-71
2021/09/21 06:57:26;;;;;;;;;;;13.10;99.90;;;;;;1869159;76;20159;-71
2021/09/21 06:59:56;;;;;;;;;;;13.10;99.90;;;;;;1833868;76;20159;-72
2021/09/21 07:02:22;;;;;;;;;;;13.10;99.90;;;;;;1914722;73;20569;-72
2021/09/21 07:04:48;;;;;;;;;;;13.20;99.90;;;;;;1871878;75;20175;-72
2021/09/21 07:07:15;;;;;;;;;;;13.30;99.90;;;;;;1872193;75;20449;-73
2021/09/21 07:09:42;;;;;;;;;;;13.30;99.90;;;;;;1871070;75;20200;-73
2021/09/21 07:12:09;;;;;;;;;;;13.40;99.90;;;;;;1877668;75;20128;-72
2021/09/21 07:14:36;;;;;;;;;;;13.40;99.90;;;;;;1872262;75;20169;-72
2021/09/21 07:17:02;;;;;;;;;;;13.30;99.90;;;;;;1855700;76;20183;-72
2021/09/21 07:19:29;;;;;;;;;;;13.30;99.90;;;;;;1864333;76;20428;-72
2021/09/21 07:21:56;;;;;;;;;;;13.30;99.90;;;;;;1880309;75;20191;-72
2021/09/21 07:24:23;;;;;;;;;;;13.40;99.90;;;;;;1830353;77;20244;-72
2021/09/21 07:26:50;;;;;;;;;;;13.40;99.90;;;;;;1866216;76;20369;-72
2021/09/21 07:29:18;;;;;;;;;;;13.40;99.90;;;;;;1864753;75;20457;-72
2021/09/21 07:31:45;;;;;;;;;;;13.60;99.90;;;;;;1839119;76;20224;-72
2021/09/21 07:34:12;;;;;;;;;;;13.60;99.90;;;;;;1851236;75;20177;-72
2021/09/21 07:36:39;;;;;;;;;;;13.50;99.90;;;;;;1865840;75;20207;-72
2021/09/21 07:39:05;;;;;;;;;;;13.50;99.90;;;;;;1866737;75;20149;-71
2021/09/21 07:41:32;;;;;;;;;;;13.70;99.90;;;;;;1861944;75;20113;-71
2021/09/21 07:43:59;;;;;;;;;;;13.70;99.90;;;;;;1867777;75;20169;-72
2021/09/21 07:46:26;;;;;;;;;;;13.70;99.90;;;;;;1865813;76;20179;-71
2021/09/21 07:48:53;;;;;;;;;;;13.70;99.90;;;;;;1871019;76;20455;-71
2021/09/21 07:51:20;;;;;;;;;;;13.80;99.90;;;;;;1869435;76;20147;-71
2021/09/21 07:53:46;;;;;;;;;;;13.80;99.90;;;;;;1870694;75;20411;-71
2021/09/21 07:56:13;;;;;;;;;;;13.80;99.90;;;;;;1854456;76;20294;-71
2021/09/21 07:58:40;;;;;;;;;;;13.90;99.90;;;;;;1851229;76;20177;-71
2021/09/21 08:01:07;;;;;;;;;;;13.90;99.90;;;;;;1853186;76;20176;-71
2021/09/21 08:03:34;;;;;;;;;;;13.90;99.90;;;;;;1858891;76;20210;-72
2021/09/21 08:06:00;;;;;;;;;;;13.90;99.90;;;;;;1857768;76;20420;-72
2021/09/21 08:08:27;;;;;;;;;;;13.90;99.90;;;;;;1841167;76;20225;-72
2021/09/21 08:10:54;;;;;;;;;;;13.90;99.90;;;;;;1849168;76;20122;-72
2021/09/21 08:13:21;;;;;;;;;;;13.90;99.90;;;;;;1854929;76;20302;-72
2021/09/21 08:15:48;;;;;;;;;;;13.90;99.90;;;;;;1855393;76;20241;-72
2021/09/21 08:18:14;;;;;;;;;;;13.90;99.90;;;;;;1848471;76;20546;-72
2021/09/21 08:20:41;;;;;;;;;;;13.90;99.90;;;;;;1851135;76;20165;-72
2021/09/21 08:23:08;;;;;;;;;;;13.90;99.90;;;;;;1851637;76;20454;-72
2021/09/21 08:25:35;;;;;;;;;;;14.00;99.90;;;;;;1855937;76;20208;-71
2021/09/21 08:28:02;;;;;;;;;;;14.00;99.90;;;;;;1853965;76;20509;-71
2021/09/21 08:30:30;;;;;;;;;;;14.00;99.90;;;;;;1851800;76;20286;-72
2021/09/21 08:32:57;;;;;;;;;;;14.00;99.90;;;;;;1850498;76;20111;-72
2021/09/21 08:35:24;;;;;;;;;;;14.00;99.90;;;;;;1849257;76;20197;-73
2021/09/21 08:37:51;;;;;;;;;;;14.10;99.90;;;;;;1853775;76;20255;-72
2021/09/21 08:40:18;;;;;;;;;;;14.10;99.90;;;;;;1852729;76;20255;-72
2021/09/21 08:42:44;;;;;;;;;;;14.20;99.90;;;;;;1852207;76;20220;-73
2021/09/21 08:45:12;;;;;;;;;;;14.10;99.90;;;;;;1849724;76;20154;-72
2021/09/21 08:47:40;;;;;;;;;;;14.20;99.90;;;;;;1854417;76;20213;-72
2021/09/21 08:50:07;;;;;;;;;;;14.30;99.90;;;;;;1851097;76;20185;-71
2021/09/21 08:52:34;;;;;;;;;;;14.30;99.90;;;;;;1852522;76;20212;-72
2021/09/21 08:55:01;;;;;;;;;;;14.30;99.90;;;;;;1848371;76;20190;-71
2021/09/21 08:57:29;;;;;;;;;;;14.40;99.90;;;;;;1845421;76;20380;-72
2021/09/21 08:59:56;;;;;;;;;;;14.40;99.90;;;;;;1854663;76;20161;-72
2021/09/21 09:02:23;;;;;;;;;;;14.50;99.90;;;;;;1849555;76;20177;-72
2021/09/21 09:04:58;;;;;;;;;;;14.50;99.90;;;;;;1845877;76;20166;-72
2021/09/21 09:07:28;;;;;;;;;;;14.60;99.90;;;;;;1855900;76;20223;-71
2021/09/21 09:10:03;;;;;;;;;;;14.60;99.90;;;;;;1851462;77;20264;-72
2021/09/21 09:12:31;;;;;;;;;;;14.70;99.90;;;;;;1853495;76;20161;-72
2021/09/21 09:14:59;;;;;;;;;;;14.70;99.90;;;;;;1854138;76;20316;-72
2021/09/21 09:17:26;;;;;;;;;;;14.70;99.90;;;;;;1839834;76;20186;-72
2021/09/21 09:19:52;;;;;;;;;;;14.70;99.90;;;;;;1880943;76;20124;-72
2021/09/21 09:22:23;;;;;;;;;;;14.70;99.90;;;;;;1856520;76;20221;-71
2021/09/21 09:24:52;;;;;;;;;;;14.80;99.90;;;;;;1854807;76;20271;-71
2021/09/21 09:27:20;;;;;;;;;;;14.80;99.90;;;;;;1885461;75;20175;-71
2021/09/21 09:29:58;;;;;;;;;;;14.90;99.90;;;;;;1874669;75;20612;-71
2021/09/21 09:32:25;;;;;;;;;;;14.90;99.90;;;;;;1862502;75;20119;-71
2021/09/21 09:34:52;;;;;;;;;;;14.90;99.90;;;;;;1886853;76;20171;-71
2021/09/21 09:37:19;;;;;;;;;;;14.90;99.90;;;;;;1872576;75;20164;-71
2021/09/21 09:39:47;;;;;;;;;;;14.90;99.90;;;;;;1873369;76;20163;-72
2021/09/21 09:42:14;;;;;;;;;;;14.90;99.90;;;;;;1857589;76;20177;-71
2021/09/21 09:44:43;;;;;;;;;;;14.90;99.90;;;;;;1866342;76;20389;-71
2021/09/21 09:47:09;;;;;;;;;;;15.00;99.90;;;;;;1852082;76;20170;-71
2021/09/21 09:49:41;;;;;;;;;;;15.00;99.90;;;;;;1860833;76;20500;-71
2021/09/21 09:52:11;;;;;;;;;;;15.10;99.90;;;;;;1853903;76;20161;-71
2021/09/21 09:54:40;;;;;;;;;;;15.10;99.90;;;;;;1856742;76;20237;-71
2021/09/21 09:57:08;;;;;;;;;;;15.10;99.90;;;;;;1849919;76;20158;-71
2021/09/21 09:59:36;;;;;;;;;;;15.10;99.90;;;;;;1880909;75;20233;-71
2021/09/21 10:02:03;;;;;;;;;;;15.10;99.90;;;;;;1873563;75;21152;-71
2021/09/21 10:04:30;;;;;;;;;;;15.10;99.90;;;;;;1872115;75;20159;-71
2021/09/21 10:06:57;;;;;;;;;;;15.10;99.90;;;;;;1885647;75;20203;-71
2021/09/21 10:09:24;;;;;;;;;;;15.10;99.90;;;;;;1881002;75;20164;-71
2021/09/21 10:11:53;;;;;;;;;;;15.10;99.90;;;;;;1875967;75;20192;-71
2021/09/21 10:14:21;;;;;;;;;;;15.10;99.90;;;;;;1820949;77;20173;-71
2021/09/21 10:16:55;;;;;;;;;;;15.20;99.90;;;;;;1869587;75;20485;-71
2021/09/21 10:19:23;;;;;;;;;;;15.20;99.90;;;;;;1858444;76;20220;-71
2021/09/21 10:21:50;;;;;;;;;;;15.20;99.90;;;;;;1889819;76;20127;-71
2021/09/21 10:24:17;;;;;;;;;;;15.20;99.90;;;;;;1879710;73;20170;-71
2021/09/21 10:26:49;;;;;;;;;;;15.30;99.90;;;;;;1850615;76;20224;-71
2021/09/21 10:29:17;;;;;;;;;;;15.20;99.90;;;;;;1840005;76;20254;-73
2021/09/21 10:31:44;;;;;;;;;;;15.20;99.90;;;;;;1842659;76;20114;-72
2021/09/21 10:34:15;;;;;;;;;;;15.30;99.90;;;;;;1866233;75;20155;-72
2021/09/21 10:36:46;;;;;;;;;;;15.40;99.90;;;;;;1865162;75;20468;-72
2021/09/21 10:39:13;;;;;;;;;;;15.40;99.90;;;;;;1868528;75;20177;-72
2021/09/21 10:41:47;;;;;;;;;;;15.40;99.90;;;;;;1878416;75;20112;-72
2021/09/21 10:44:14;;;;;;;;;;;15.40;99.90;;;;;;1844194;76;20126;-72
2021/09/21 10:46:45;;;;;;;;;;;15.50;99.90;;;;;;1877905;75;20484;-72
2021/09/21 10:49:13;;;;;;;;;;;15.50;99.90;;;;;;1830152;76;20198;-72
2021/09/21 10:51:42;;;;;;;;;;;15.40;99.90;;;;;;1831188;78;20267;-72
2021/09/21 10:54:09;;;;;;;;;;;15.50;99.90;;;;;;1855123;76;20428;-72
2021/09/21 10:56:37;;;;;;;;;;;15.50;99.90;;;;;;1831668;77;20178;-72
2021/09/21 10:59:05;;;;;;;;;;;15.50;99.90;;;;;;1833055;78;20442;-72
2021/09/21 11:01:32;;;;;;;;;;;15.50;99.90;;;;;;1874773;75;20128;-72
2021/09/21 11:03:59;;;;;;;;;;;15.60;99.90;;;;;;1876584;75;20425;-72
2021/09/21 11:06:26;;;;;;;;;;;15.60;99.90;;;;;;1877530;75;20226;-72
2021/09/21 11:08:52;;;;;;;;;;;15.60;99.90;;;;;;1874535;75;20383;-73
2021/09/21 11:11:21;;;;;;;;;;;15.60;99.90;;;;;;1876600;75;20163;-71
2021/09/21 11:13:49;;;;;;;;;;;15.60;99.90;;;;;;1875862;75;20186;-71
2021/09/21 11:16:16;;;;;;;;;;;15.60;99.90;;;;;;1865051;75;20166;-71
2021/09/21 11:18:44;;;;;;;;;;;15.60;99.90;;;;;;1874391;76;20116;-71
2021/09/21 11:21:12;;;;;;;;;;;15.70;99.90;;;;;;1882416;76;20116;-71
2021/09/21 11:23:40;;;;;;;;;;;15.70;99.90;;;;;;1871217;75;20119;-71
2021/09/21 11:28:55;;;;;;;;;;;15.80;99.90;;;;;;1922352;73;20167;-70
2021/09/21 11:31:21;;;;;;;;;;;15.80;99.90;;;;;;1919947;73;20449;-70
2021/09/21 11:33:53;;;;;;;;;;;15.80;99.90;;;;;;1961024;72;20173;-70
2021/09/21 11:36:17;;;;;;;;;;;15.80;99.90;;;;;;1953926;72;20429;-71
2021/09/21 11:38:46;;;;;;;;;;;15.80;99.90;;;;;;1953265;72;20537;-70
2021/09/21 11:41:14;;;;;;;;;;;15.80;99.90;;;;;;1954974;72;20138;-71
2021/09/21 11:43:41;;;;;;;;;;;15.80;99.90;;;;;;1953207;72;20184;-71
2021/09/21 11:46:08;;;;;;;;;;;15.80;99.90;;;;;;1948816;72;20178;-70
2021/09/21 11:48:35;;;;;;;;;;;15.90;99.90;;;;;;1954891;72;20202;-71
2021/09/21 11:51:01;;;;;;;;;;;16.00;99.90;;;;;;1942114;72;20442;-70
2021/09/21 11:53:30;;;;;;;;;;;16.00;99.90;;;;;;1949593;72;20218;-71
2021/09/21 11:56:00;;;;;;;;;;;16.00;99.90;;;;;;1939979;72;20199;-70
2021/09/21 11:58:31;;;;;;;;;;;15.90;99.90;;;;;;1949693;72;20288;-70
2021/09/21 12:01:02;;;;;;;;;;;16.00;99.90;;;;;;1953404;72;20213;-70
2021/09/21 12:03:30;;;;;;;;;;;16.10;99.90;;;;;;1956794;72;20199;-70
2021/09/21 12:05:57;;;;;;;;;;;16.10;99.90;;;;;;1953308;72;20178;-70
2021/09/21 12:08:25;;;;;;;;;;;16.20;99.90;;;;;;1953331;72;20176;-70
2021/09/21 12:10:53;;;;;;;;;;;16.20;99.90;;;;;;1950998;72;20119;-70
2021/09/21 12:13:21;;;;;;;;;;;16.30;99.90;;;;;;1955246;72;20171;-71
2021/09/21 12:15:49;;;;;;;;;;;16.30;99.90;;;;;;1955372;72;20119;-71
2021/09/21 12:18:17;;;;;;;;;;;16.40;99.90;;;;;;1953505;72;20121;-71
2021/09/21 12:20:46;;;;;;;;;;;16.40;99.90;;;;;;1957162;72;20216;-71
2021/09/21 12:23:13;;;;;;;;;;;16.50;99.90;;;;;;1955521;72;20118;-71
2021/09/21 12:25:43;;;;;;;;;;;16.50;99.90;;;;;;1954451;72;20214;-71
2021/09/21 12:28:10;;;;;;;;;;;16.60;99.90;;;;;;1955994;72;20241;-71
2021/09/21 12:30:38;;;;;;;;;;;16.50;99.90;;;;;;1955995;72;20210;-70
2021/09/21 12:33:06;;;;;;;;;;;16.60;99.90;;;;;;1954853;72;20845;-71
2021/09/21 12:35:34;;;;;;;;;;;16.70;99.90;;;;;;1950150;72;20159;-71
2021/09/21 12:38:03;;;;;;;;;;;16.80;99.90;;;;;;1951842;72;20124;-71
2021/09/21 12:40:29;;;;;;;;;;;16.70;99.90;;;;;;1953556;72;20214;-71
2021/09/21 12:42:56;;;;;;;;;;;16.70;99.90;;;;;;1912755;74;20269;-71
2021/09/21 12:45:23;;;;;;;;;;;16.70;99.90;;;;;;1909428;74;20245;-71
2021/09/21 12:47:50;;;;;;;;;;;16.80;99.90;;;;;;1903428;74;20473;-71
2021/09/21 12:50:18;;;;;;;;;;;16.80;99.90;;;;;;1900705;74;20304;-72
2021/09/21 12:52:56;;;;;;;;;;;16.90;99.90;;;;;;1893412;74;20494;-72
2021/09/21 12:55:27;;;;;;;;;;;17.00;99.90;;;;;;1887300;74;20165;-72
2021/09/21 12:57:55;;;;;;;;;;;17.10;99.90;;;;;;1894486;74;20157;-72
2021/09/21 13:00:22;;;;;;;;;;;17.30;99.90;;;;;;1893171;74;20466;-73
2021/09/21 13:02:52;;;;;;;;;;;17.20;99.90;;;;;;1885528;75;20160;-71
2021/09/21 13:05:19;;;;;;;;;;;17.20;99.90;;;;;;1904328;74;20166;-71
2021/09/21 13:07:46;;;;;;;;;;;17.20;99.90;;;;;;1900329;74;20173;-71
2021/09/21 13:10:13;;;;;;;;;;;17.30;99.90;;;;;;1901693;75;20196;-72
2021/09/21 13:12:40;;;;;;;;;;;17.50;99.90;;;;;;1897408;74;20119;-71
2021/09/21 13:15:07;;;;;;;;;;;17.60;99.90;;;;;;1894566;74;20218;-72
2021/09/21 13:17:34;;;;;;;;;;;17.80;99.90;;;;;;1898709;74;20168;-71
2021/09/21 13:20:01;;;;;;;;;;;18.00;99.90;;;;;;1902851;74;20336;-71
2021/09/21 13:22:28;;;;;;;;;;;18.20;99.90;;;;;;1894222;74;20241;-71
2021/09/21 13:24:55;;;;;;;;;;;18.40;99.90;;;;;;1889975;74;20241;-72
2021/09/21 13:27:21;;;;;;;;;;;18.50;99.90;;;;;;1901321;74;20163;-71
2021/09/21 13:29:48;;;;;;;;;;;18.50;99.90;;;;;;1874786;75;20122;-71
2021/09/21 13:32:16;;;;;;;;;;;18.60;99.90;;;;;;1897260;74;20161;-71
2021/09/21 13:34:42;;;;;;;;;;;18.80;99.90;;;;;;1903835;74;20210;-71
2021/09/21 13:37:09;;;;;;;;;;;18.70;99.90;;;;;;1895973;74;20215;-71
2021/09/21 13:39:36;;;;;;;;;;;18.50;99.90;;;;;;1901831;74;20239;-71
2021/09/21 13:42:03;;;;;;;;;;;18.20;99.90;;;;;;1904357;74;20186;-71
2021/09/21 13:44:30;;;;;;;;;;;18.10;99.90;;;;;;1894031;74;20216;-71
2021/09/21 13:46:57;;;;;;;;;;;18.00;99.90;;;;;;1912367;74;20518;-71
2021/09/21 13:49:24;;;;;;;;;;;17.90;99.90;;;;;;1897539;74;20110;-71
2021/09/21 13:51:51;;;;;;;;;;;17.70;99.90;;;;;;1900743;74;20470;-71
2021/09/21 13:54:18;;;;;;;;;;;17.60;99.90;;;;;;1896630;74;20173;-71
2021/09/21 13:56:44;;;;;;;;;;;17.50;99.90;;;;;;1893392;74;20189;-71
2021/09/21 13:59:12;;;;;;;;;;;17.40;99.90;;;;;;1890326;74;20221;-72
2021/09/21 14:01:39;;;;;;;;;;;17.30;99.90;;;;;;1900498;74;20127;-70
2021/09/21 14:04:06;;;;;;;;;;;17.30;99.90;;;;;;1901890;74;20207;-71
2021/09/21 14:06:32;;;;;;;;;;;17.30;99.90;;;;;;1904472;74;20241;-71
2021/09/21 14:08:59;;;;;;;;;;;17.20;99.90;;;;;;1903297;74;20176;-71
2021/09/21 14:11:26;;;;;;;;;;;17.10;99.90;;;;;;1901970;74;20425;-71
2021/09/21 14:13:53;;;;;;;;;;;17.10;99.90;;;;;;1901915;74;20115;-71
2021/09/21 14:16:20;;;;;;;;;;;17.00;99.90;;;;;;1897561;74;20203;-71
2021/09/21 14:18:46;;;;;;;;;;;17.00;99.90;;;;;;1901814;74;20167;-71
2021/09/21 14:21:13;;;;;;;;;;;17.00;99.90;;;;;;1900562;74;20201;-71
2021/09/21 14:23:40;;;;;;;;;;;17.00;99.90;;;;;;1900688;74;20182;-71
2021/09/21 14:26:07;;;;;;;;;;;16.90;99.90;;;;;;1896956;74;20234;-70
2021/09/21 14:28:34;;;;;;;;;;;16.80;99.90;;;;;;1895466;74;20168;-71